Time;durP1;ratioP1;P1;durP2;ratioP2;P2;SDS_P1;SDS_P2;PMS_P1;PMS_P2;Temp;Humidity;BMP_temperature;BMP_pressure;BME280_temperature;BME280_humidity;BME280_pressure;Samples;Min_cycle;Max_cycle;Signal;HPM_P1;HPM_P2
2021/01/31 00:00:39;;;;;;;0.40;0.40;;;1.10;99.90;;;;;;5041399;28;20248;-83
2021/01/31 00:03:08;;;;;;;0.20;0.20;;;1.10;99.90;;;;;;5044165;28;20589;-84
2021/01/31 00:05:34;;;;;;;0.40;0.40;;;1.10;99.90;;;;;;5031899;28;20166;-83
2021/01/31 00:08:00;;;;;;;0.30;0.17;;;1.10;99.90;;;;;;5039659;28;20220;-83
2021/01/31 00:10:28;;;;;;;0.43;0.43;;;1.10;99.90;;;;;;5037255;28;20248;-84
2021/01/31 00:12:54;;;;;;;0.30;0.30;;;1.10;99.90;;;;;;5039273;28;20201;-83
2021/01/31 00:15:24;;;;;;;0.10;0.10;;;1.10;99.90;;;;;;5036545;28;20186;-83
2021/01/31 00:17:50;;;;;;;0.10;0.10;;;1.10;99.90;;;;;;5039636;28;20190;-83
2021/01/31 00:20:18;;;;;;;0.70;0.40;;;1.10;99.90;;;;;;5034491;28;20833;-83
2021/01/31 00:22:44;;;;;;;0.63;0.63;;;1.10;99.90;;;;;;5030841;28;20193;-82
2021/01/31 00:25:10;;;;;;;0.70;0.70;;;1.10;99.90;;;;;;5040074;28;20171;-83
2021/01/31 00:27:36;;;;;;;0.40;0.40;;;1.10;99.90;;;;;;5033142;28;20263;-83
2021/01/31 00:30:10;;;;;;;1.50;0.40;;;1.20;99.90;;;;;;5043971;28;20234;-83
2021/01/31 00:32:36;;;;;;;0.97;0.47;;;1.20;99.90;;;;;;5035246;28;20248;-82
2021/01/31 00:35:01;;;;;;;0.20;0.20;;;1.20;99.90;;;;;;5034311;28;20240;-84
2021/01/31 00:37:27;;;;;;;0.57;0.37;;;1.20;99.90;;;;;;5036242;28;20186;-83
2021/01/31 00:39:52;;;;;;;0.30;0.30;;;1.20;99.90;;;;;;5046905;28;20717;-83
2021/01/31 00:42:32;;;;;;;0.37;0.37;;;1.20;99.90;;;;;;5034846;28;20200;-83
2021/01/31 00:44:58;;;;;;;0.10;0.10;;;1.30;99.90;;;;;;5034809;28;20186;-83
2021/01/31 00:47:23;;;;;;;0.10;0.10;;;1.20;99.90;;;;;;5039429;28;20224;-83
2021/01/31 00:49:50;;;;;;;0.33;0.33;;;1.20;99.90;;;;;;5034295;28;20222;-85
2021/01/31 00:52:16;;;;;;;0.17;0.17;;;1.20;99.90;;;;;;5045815;28;20185;-83
2021/01/31 00:54:42;;;;;;;1.70;0.93;;;1.20;99.90;;;;;;5049529;28;20651;-83
2021/01/31 00:57:08;;;;;;;0.60;0.43;;;1.20;99.90;;;;;;5045859;28;20280;-83
2021/01/31 00:59:33;;;;;;;2.13;1.17;;;1.20;99.90;;;;;;5036428;28;20639;-83
2021/01/31 01:02:00;;;;;;;0.20;0.20;;;1.20;99.90;;;;;;5044734;28;20292;-85
2021/01/31 01:04:25;;;;;;;0.20;0.20;;;1.20;99.90;;;;;;5042066;28;20188;-84
2021/01/31 01:06:51;;;;;;;0.40;0.40;;;1.20;99.90;;;;;;5042758;28;20266;-83
2021/01/31 01:09:17;;;;;;;0.10;0.10;;;1.30;99.90;;;;;;5041278;28;20554;-83
2021/01/31 01:11:43;;;;;;;0.77;0.27;;;1.30;99.90;;;;;;5044884;28;20305;-83
2021/01/31 01:14:09;;;;;;;0.30;0.20;;;1.30;99.90;;;;;;5039521;28;20194;-83
2021/01/31 01:16:35;;;;;;;0.40;0.40;;;1.30;99.90;;;;;;5045531;28;20661;-83
2021/01/31 01:19:03;;;;;;;0.97;0.83;;;1.30;99.90;;;;;;5041948;28;20193;-83
2021/01/31 01:21:29;;;;;;;0.80;0.70;;;1.30;99.90;;;;;;5041426;28;20218;-84
2021/01/31 01:23:55;;;;;;;0.20;0.20;;;1.20;99.90;;;;;;5039851;28;20186;-83
2021/01/31 01:26:21;;;;;;;0.50;0.33;;;1.20;99.90;;;;;;5043438;28;20193;-83
2021/01/31 01:28:46;;;;;;;0.60;0.30;;;1.20;99.90;;;;;;5044746;28;20265;-83
2021/01/31 01:31:12;;;;;;;2.00;0.47;;;1.20;99.90;;;;;;5033033;28;20246;-83
2021/01/31 01:33:37;;;;;;;0.20;0.20;;;1.20;99.90;;;;;;5034739;28;20175;-83
2021/01/31 01:36:04;;;;;;;0.20;0.20;;;1.20;99.90;;;;;;5046607;28;20834;-83
2021/01/31 01:38:29;;;;;;;0.10;0.10;;;1.20;99.90;;;;;;5039549;28;20628;-84
2021/01/31 01:40:56;;;;;;;0.77;0.60;;;1.20;99.90;;;;;;5041349;28;20203;-83
2021/01/31 01:43:22;;;;;;;0.93;0.93;;;1.20;99.90;;;;;;5034756;28;20171;-83
2021/01/31 01:46:21;;;;;;;0.90;0.53;;;1.20;99.90;;;;;;5045242;28;20186;-83
2021/01/31 01:49:02;;;;;;;0.53;0.53;;;1.20;99.90;;;;;;5032408;28;20178;-83
2021/01/31 01:51:40;;;;;;;0.20;0.20;;;1.20;99.90;;;;;;5034080;28;20194;-83
2021/01/31 01:54:08;;;;;;;0.53;0.53;;;1.20;99.90;;;;;;5046852;28;20613;-83
2021/01/31 01:56:46;;;;;;;2.13;0.47;;;1.20;99.90;;;;;;5023372;28;20221;-83
2021/01/31 01:59:11;;;;;;;0.13;0.13;;;1.20;99.90;;;;;;5041554;28;20641;-83
2021/01/31 02:01:58;;;;;;;0.77;0.77;;;1.20;99.90;;;;;;5042182;28;20194;-82
2021/01/31 02:04:24;;;;;;;0.30;0.23;;;1.20;99.90;;;;;;5034721;28;20174;-83
2021/01/31 02:06:50;;;;;;;0.40;0.40;;;1.20;99.90;;;;;;5044573;28;20200;-83
2021/01/31 02:09:15;;;;;;;0.67;0.67;;;1.20;99.90;;;;;;5034595;28;20213;-83
2021/01/31 02:11:41;;;;;;;1.17;0.50;;;1.20;99.90;;;;;;5034082;28;20222;-83
2021/01/31 02:14:10;;;;;;;1.10;0.30;;;1.10;99.90;;;;;;5044541;28;20707;-83
2021/01/31 02:16:56;;;;;;;0.53;0.53;;;1.20;99.90;;;;;;5032824;28;20209;-83
2021/01/31 02:19:59;;;;;;;0.53;0.37;;;1.10;99.90;;;;;;5035598;28;20204;-83
2021/01/31 02:22:36;;;;;;;0.33;0.33;;;1.20;99.90;;;;;;5038541;28;20177;-83
2021/01/31 02:25:10;;;;;;;2.30;0.30;;;1.20;99.90;;;;;;5039497;28;20871;-82
2021/01/31 02:27:57;;;;;;;4.70;0.47;;;1.20;99.90;;;;;;5040140;28;20213;-86
2021/01/31 02:30:38;;;;;;;0.27;0.23;;;1.10;99.90;;;;;;5042025;28;20214;-83
2021/01/31 02:33:25;;;;;;;0.40;0.40;;;1.10;99.90;;;;;;5029844;28;20189;-83
2021/01/31 02:36:01;;;;;;;2.67;1.03;;;1.10;99.90;;;;;;5042756;28;20642;-84
2021/01/31 02:38:32;;;;;;;0.83;0.50;;;1.00;99.90;;;;;;5041267;28;20190;-83
2021/01/31 02:41:28;;;;;;;0.17;0.17;;;1.00;99.90;;;;;;5031899;28;20311;-83
2021/01/31 02:43:55;;;;;;;0.30;0.30;;;1.00;99.90;;;;;;5033547;28;20194;-83
2021/01/31 02:46:35;;;;;;;0.20;0.20;;;1.00;99.90;;;;;;5046493;28;20261;-84
2021/01/31 02:49:27;;;;;;;1.40;0.63;;;1.00;99.90;;;;;;5035115;28;20219;-83
2021/01/31 02:52:19;;;;;;;0.40;0.40;;;1.00;99.90;;;;;;5021741;28;20170;-84
2021/01/31 02:55:38;;;;;;;0.87;0.43;;;1.00;99.90;;;;;;5032562;28;20262;-84
2021/01/31 02:58:03;;;;;;;0.60;0.40;;;1.10;99.90;;;;;;5057187;28;20185;-82
2021/01/31 03:00:46;;;;;;;0.73;0.60;;;1.00;99.90;;;;;;5038569;28;20702;-83
2021/01/31 03:03:27;;;;;;;0.30;0.30;;;1.00;99.90;;;;;;5024237;28;20387;-83
2021/01/31 03:06:05;;;;;;;0.20;0.20;;;1.00;99.90;;;;;;5031660;28;20178;-83
2021/01/31 03:08:36;;;;;;;0.93;0.77;;;1.00;99.90;;;;;;5041183;28;20197;-83
2021/01/31 03:11:08;;;;;;;0.50;0.50;;;1.00;99.90;;;;;;5044607;28;20201;-82
2021/01/31 03:13:56;;;;;;;1.67;0.70;;;1.00;99.90;;;;;;5046723;28;20173;-83
2021/01/31 03:16:34;;;;;;;0.57;0.57;;;1.00;99.90;;;;;;5042507;28;20205;-83
2021/01/31 03:19:13;;;;;;;1.07;1.07;;;1.00;99.90;;;;;;5038309;28;20182;-82
2021/01/31 03:21:42;;;;;;;0.30;0.30;;;1.00;99.90;;;;;;5038001;28;20713;-83
2021/01/31 03:24:35;;;;;;;0.43;0.43;;;1.00;99.90;;;;;;5042227;28;20201;-83
2021/01/31 03:27:13;;;;;;;0.47;0.47;;;1.00;99.90;;;;;;5031544;28;20685;-82
2021/01/31 03:29:39;;;;;;;0.40;0.40;;;1.00;99.90;;;;;;5030976;28;20190;-82
2021/01/31 03:32:29;;;;;;;1.00;0.30;;;1.10;99.90;;;;;;5022338;28;20189;-82
2021/01/31 03:34:59;;;;;;;0.17;0.17;;;1.10;99.90;;;;;;5031700;28;20256;-84
2021/01/31 03:37:41;;;;;;;0.57;0.57;;;1.00;99.90;;;;;;5043666;28;20189;-84
2021/01/31 03:40:08;;;;;;;0.57;0.57;;;1.00;99.90;;;;;;5033808;28;20864;-82
2021/01/31 03:42:35;;;;;;;0.40;0.40;;;1.00;99.90;;;;;;5032647;28;20190;-82
2021/01/31 03:45:06;;;;;;;0.33;0.27;;;1.00;99.90;;;;;;5039080;28;20178;-82
2021/01/31 03:47:50;;;;;;;0.40;0.20;;;1.00;99.90;;;;;;5034958;28;20182;-82
2021/01/31 03:50:16;;;;;;;0.40;0.40;;;1.00;99.90;;;;;;5029583;28;20682;-82
2021/01/31 03:52:44;;;;;;;0.23;0.23;;;1.00;99.90;;;;;;5044336;28;20227;-82
2021/01/31 03:55:10;;;;;;;0.50;0.50;;;1.00;99.90;;;;;;5039456;28;20197;-83
2021/01/31 03:57:48;;;;;;;0.50;0.50;;;1.00;99.90;;;;;;5037333;28;20705;-82
2021/01/31 04:00:19;;;;;;;0.10;0.10;;;1.00;99.90;;;;;;5014693;28;20218;-82
2021/01/31 04:02:58;;;;;;;0.20;0.20;;;1.00;99.90;;;;;;5032317;28;20183;-82
2021/01/31 04:05:28;;;;;;;4.13;0.97;;;1.00;99.90;;;;;;5020677;28;20648;-83
2021/01/31 04:07:58;;;;;;;0.70;0.70;;;0.90;99.90;;;;;;5047548;28;20237;-83
2021/01/31 04:10:24;;;;;;;0.47;0.47;;;1.00;99.90;;;;;;5038056;28;20208;-82
2021/01/31 04:12:55;;;;;;;0.27;0.27;;;0.90;99.90;;;;;;5043970;28;20182;-83
2021/01/31 04:15:40;;;;;;;0.60;0.60;;;1.00;99.90;;;;;;5030791;28;20188;-82
2021/01/31 04:18:08;;;;;;;1.30;1.20;;;0.90;99.90;;;;;;5031846;28;20186;-82
2021/01/31 04:20:34;;;;;;;0.47;0.47;;;0.90;99.90;;;;;;5035823;28;20220;-81
2021/01/31 04:23:00;;;;;;;0.50;0.20;;;0.90;99.90;;;;;;5043537;28;20184;-82
2021/01/31 04:25:48;;;;;;;0.67;0.67;;;0.90;99.90;;;;;;5046213;28;20192;-82
2021/01/31 04:28:15;;;;;;;0.70;0.40;;;0.90;99.90;;;;;;5039242;28;20354;-83
2021/01/31 04:30:43;;;;;;;0.47;0.47;;;0.90;99.90;;;;;;5030177;28;20224;-82
2021/01/31 04:33:11;;;;;;;0.73;0.57;;;0.90;99.90;;;;;;5031299;28;20643;-82
2021/01/31 04:35:37;;;;;;;0.53;0.37;;;0.90;99.90;;;;;;5042862;28;20186;-81
2021/01/31 04:38:03;;;;;;;0.33;0.33;;;0.90;99.90;;;;;;5043408;28;20688;-82
2021/01/31 04:40:30;;;;;;;0.40;0.40;;;0.90;99.90;;;;;;5047859;28;20286;-82
2021/01/31 04:42:56;;;;;;;1.47;1.37;;;0.90;99.90;;;;;;5035988;28;20189;-83
2021/01/31 04:45:23;;;;;;;0.80;0.80;;;0.80;99.90;;;;;;5030458;28;20179;-82
2021/01/31 04:48:00;;;;;;;0.27;0.27;;;0.80;99.90;;;;;;5032845;28;20182;-83
2021/01/31 04:50:44;;;;;;;0.30;0.30;;;0.80;99.90;;;;;;5040688;28;20216;-82
2021/01/31 04:53:19;;;;;;;2.10;1.10;;;0.90;99.90;;;;;;5044032;28;20199;-82
2021/01/31 04:55:54;;;;;;;0.53;0.53;;;0.90;99.90;;;;;;5044102;28;20182;-84
2021/01/31 04:58:27;;;;;;;0.10;0.10;;;0.90;99.90;;;;;;5043728;28;20548;-82
2021/01/31 05:00:58;;;;;;;4.03;0.70;;;0.70;99.90;;;;;;5027030;28;20226;-82
2021/01/31 05:03:26;;;;;;;1.67;0.63;;;0.80;99.90;;;;;;5045003;28;20178;-82
2021/01/31 05:05:54;;;;;;;0.43;0.37;;;0.80;99.90;;;;;;5046859;28;20654;-82
2021/01/31 05:08:25;;;;;;;0.30;0.30;;;0.80;99.90;;;;;;5030727;28;20868;-82
2021/01/31 05:10:55;;;;;;;0.37;0.37;;;0.80;99.90;;;;;;5030851;28;20215;-82
2021/01/31 05:13:51;;;;;;;0.43;0.40;;;0.70;99.90;;;;;;5042359;28;20186;-83
2021/01/31 05:16:17;;;;;;;0.20;0.20;;;0.70;99.90;;;;;;5046194;28;20266;-85
2021/01/31 05:18:48;;;;;;;0.30;0.30;;;0.70;99.90;;;;;;5033598;28;20178;-84
2021/01/31 05:21:18;;;;;;;1.07;0.90;;;0.70;99.90;;;;;;5043108;28;20276;-84
2021/01/31 05:23:49;;;;;;;0.50;0.50;;;0.70;99.90;;;;;;5037633;28;20186;-84
2021/01/31 05:26:18;;;;;;;0.40;0.40;;;0.60;99.90;;;;;;5043920;28;20180;-84
2021/01/31 05:29:06;;;;;;;3.70;1.40;;;0.70;99.90;;;;;;5031235;28;20178;-85
2021/01/31 05:31:36;;;;;;;1.40;0.73;;;0.60;99.90;;;;;;5046279;28;20213;-84
2021/01/31 05:34:02;;;;;;;0.17;0.17;;;0.70;99.90;;;;;;5045286;28;20185;-83
2021/01/31 05:36:30;;;;;;;0.43;0.40;;;0.70;99.90;;;;;;5048009;28;20178;-84
2021/01/31 05:38:56;;;;;;;1.60;0.37;;;0.60;99.90;;;;;;5046479;28;20205;-85
2021/01/31 05:41:37;;;;;;;0.40;0.40;;;0.60;99.90;;;;;;5037342;28;20220;-85
2021/01/31 05:44:14;;;;;;;0.20;0.20;;;0.70;99.90;;;;;;5031902;28;20189;-83
2021/01/31 05:46:43;;;;;;;0.37;0.37;;;0.60;99.90;;;;;;5050105;28;20193;-82
2021/01/31 05:49:11;;;;;;;0.63;0.57;;;0.60;99.90;;;;;;5036928;28;20249;-82
2021/01/31 05:51:37;;;;;;;0.40;0.40;;;0.60;99.90;;;;;;5047133;28;20213;-82
2021/01/31 05:54:26;;;;;;;0.67;0.63;;;0.60;99.90;;;;;;5035391;28;20182;-82
2021/01/31 05:56:53;;;;;;;0.30;0.30;;;0.70;99.90;;;;;;5040860;28;20214;-82
2021/01/31 05:59:19;;;;;;;0.30;0.30;;;0.60;99.90;;;;;;5041822;28;20171;-82
2021/01/31 06:01:56;;;;;;;0.40;0.40;;;0.60;99.90;;;;;;5026988;28;20199;-82
2021/01/31 06:04:33;;;;;;;0.30;0.20;;;0.70;99.90;;;;;;5041256;28;20195;-82
2021/01/31 06:07:08;;;;;;;1.13;0.73;;;0.70;99.90;;;;;;5029548;28;20322;-82
2021/01/31 06:09:38;;;;;;;0.47;0.20;;;0.80;99.90;;;;;;5029666;28;20178;-83
2021/01/31 06:12:26;;;;;;;0.30;0.30;;;0.80;99.90;;;;;;5041876;28;20190;-81
2021/01/31 06:15:10;;;;;;;0.53;0.37;;;0.80;99.90;;;;;;5041715;28;20186;-84
2021/01/31 06:17:36;;;;;;;0.30;0.30;;;0.80;99.90;;;;;;5048735;28;20630;-82
2021/01/31 06:20:14;;;;;;;0.20;0.20;;;0.70;99.90;;;;;;5025327;28;20223;-83
2021/01/31 06:22:45;;;;;;;0.83;0.37;;;0.70;99.90;;;;;;5046164;28;20684;-82
2021/01/31 06:25:32;;;;;;;0.70;0.70;;;0.70;99.90;;;;;;5039459;28;20178;-83
2021/01/31 06:28:16;;;;;;;0.40;0.40;;;0.60;99.90;;;;;;5034682;28;20179;-83
2021/01/31 06:31:08;;;;;;;0.83;0.83;;;0.60;99.90;;;;;;5049319;28;20213;-83
2021/01/31 06:33:34;;;;;;;0.57;0.53;;;0.60;99.90;;;;;;5036319;28;20232;-83
2021/01/31 06:36:26;;;;;;;0.23;0.23;;;0.60;99.90;;;;;;5036126;28;20187;-83
2021/01/31 06:39:19;;;;;;;1.07;0.97;;;0.60;99.90;;;;;;5046016;28;20507;-83
2021/01/31 06:41:55;;;;;;;0.23;0.23;;;0.60;99.90;;;;;;5043335;28;20198;-84
2021/01/31 06:44:41;;;;;;;0.17;0.17;;;0.60;99.90;;;;;;5035236;28;20170;-85
2021/01/31 06:47:19;;;;;;;0.63;0.43;;;0.60;99.90;;;;;;5053815;28;20276;-86
2021/01/31 06:50:09;;;;;;;0.23;0.23;;;0.60;99.90;;;;;;5036497;28;20182;-85
2021/01/31 06:53:09;;;;;;;0.13;0.13;;;0.60;99.90;;;;;;5045278;28;20183;-85
2021/01/31 06:55:49;;;;;;;0.50;0.50;;;0.60;99.90;;;;;;5039372;28;20186;-86
2021/01/31 06:58:33;;;;;;;0.80;0.80;;;0.60;99.90;;;;;;5030391;28;20179;-82
2021/01/31 07:01:21;;;;;;;0.20;0.20;;;0.60;99.90;;;;;;5029080;28;20281;-83
2021/01/31 07:03:54;;;;;;;1.27;0.33;;;0.60;99.90;;;;;;5044141;28;20170;-82
2021/01/31 07:06:52;;;;;;;0.10;0.10;;;0.70;99.90;;;;;;5039281;28;20182;-83
2021/01/31 07:09:41;;;;;;;0.40;0.40;;;0.80;99.90;;;;;;5046440;28;20214;-85
2021/01/31 07:12:25;;;;;;;0.97;0.43;;;0.70;99.90;;;;;;5037521;28;20207;-84
2021/01/31 07:15:12;;;;;;;0.33;0.30;;;0.80;99.90;;;;;;5034688;28;20178;-86
2021/01/31 07:18:01;;;;;;;0.33;0.33;;;0.80;99.90;;;;;;5039803;28;20186;-86
2021/01/31 07:20:44;;;;;;;1.30;1.30;;;0.70;99.90;;;;;;5039920;28;20626;-86
2021/01/31 07:23:18;;;;;;;0.37;0.23;;;0.80;99.90;;;;;;5041448;28;20301;-86
2021/01/31 07:25:56;;;;;;;0.20;0.20;;;0.70;99.90;;;;;;5032659;28;20208;-84
2021/01/31 07:28:34;;;;;;;0.43;0.43;;;0.80;99.90;;;;;;5047315;28;20178;-84
2021/01/31 07:31:29;;;;;;;0.13;0.13;;;0.80;99.90;;;;;;5035270;28;20210;-83
2021/01/31 07:34:07;;;;;;;0.73;0.57;;;0.80;99.90;;;;;;5022220;28;20186;-83
2021/01/31 07:37:01;;;;;;;1.60;0.63;;;0.80;99.90;;;;;;5034385;28;20191;-85
2021/01/31 07:39:52;;;;;;;1.13;0.47;;;0.70;99.90;;;;;;5044228;28;20225;-85
2021/01/31 07:42:20;;;;;;;0.30;0.30;;;0.80;99.90;;;;;;5025969;28;20193;-85
2021/01/31 07:44:47;;;;;;;0.40;0.40;;;0.80;99.90;;;;;;5029191;28;20178;-83
2021/01/31 07:47:33;;;;;;;0.60;0.60;;;0.80;99.90;;;;;;5031112;28;20182;-83
2021/01/31 07:50:01;;;;;;;0.10;0.10;;;0.80;99.90;;;;;;5031757;28;20332;-84
2021/01/31 07:53:10;;;;;;;0.40;0.40;;;0.80;99.90;;;;;;5060790;28;20665;-83
2021/01/31 07:55:51;;;;;;;0.30;0.30;;;0.80;99.90;;;;;;5026542;28;20193;-82
2021/01/31 07:58:20;;;;;;;0.40;0.40;;;0.80;99.90;;;;;;5027716;28;20265;-83
2021/01/31 08:00:49;;;;;;;0.93;0.57;;;0.70;99.90;;;;;;5041398;28;20221;-82
2021/01/31 08:03:29;;;;;;;0.47;0.47;;;0.90;99.90;;;;;;5027229;28;20174;-83
2021/01/31 08:06:32;;;;;;;0.37;0.37;;;0.90;99.90;;;;;;5034586;28;20174;-84
2021/01/31 08:08:57;;;;;;;0.23;0.23;;;0.80;99.90;;;;;;5028900;28;20182;-84
2021/01/31 08:11:36;;;;;;;0.10;0.10;;;0.80;99.90;;;;;;5032708;28;20341;-84
2021/01/31 08:14:01;;;;;;;1.07;0.83;;;0.80;99.90;;;;;;5058597;28;20204;-83
2021/01/31 08:16:47;;;;;;;0.30;0.30;;;0.80;99.90;;;;;;5027896;28;20344;-83
2021/01/31 08:19:18;;;;;;;0.30;0.30;;;0.80;99.90;;;;;;5050363;28;20319;-81
2021/01/31 08:21:52;;;;;;;0.87;0.40;;;0.80;99.90;;;;;;5038660;28;20206;-85
2021/01/31 08:24:56;;;;;;;0.77;0.27;;;0.80;99.90;;;;;;5027394;28;20171;-83
2021/01/31 08:31:17;;;;;;;1.87;1.37;;;0.90;99.90;;;;;;5021909;28;20209;-83
2021/01/31 08:33:57;;;;;;;0.10;0.10;;;1.00;99.90;;;;;;5059353;28;20186;-83
2021/01/31 08:36:26;;;;;;;2.10;0.33;;;0.90;99.90;;;;;;5043608;28;20374;-84
2021/01/31 08:42:17;;;;;;;0.47;0.40;;;1.00;99.90;;;;;;5036124;28;20184;-84
2021/01/31 08:44:53;;;;;;;0.33;0.33;;;1.00;99.90;;;;;;5025953;28;20297;-83
2021/01/31 08:47:18;;;;;;;0.47;0.40;;;1.10;99.90;;;;;;5034972;28;20532;-83
2021/01/31 08:49:55;;;;;;;0.10;0.10;;;1.10;99.90;;;;;;5036708;28;20205;-82
2021/01/31 08:52:23;;;;;;;0.40;0.37;;;1.20;99.90;;;;;;5039549;28;20188;-82
2021/01/31 08:54:59;;;;;;;2.40;0.40;;;1.20;99.90;;;;;;5039607;28;20718;-84
2021/01/31 08:57:26;;;;;;;4.53;1.13;;;0.90;99.90;;;;;;5039550;28;20171;-84
2021/01/31 08:59:52;;;;;;;1.00;1.00;;;1.00;99.90;;;;;;5048613;28;20259;-86
2021/01/31 09:02:24;;;;;;;1.63;0.63;;;1.00;99.90;;;;;;5031430;28;20262;-88
2021/01/31 09:05:02;;;;;;;0.30;0.30;;;1.10;99.90;;;;;;5043747;28;20268;-83
2021/01/31 09:07:29;;;;;;;0.43;0.43;;;1.10;99.90;;;;;;5042336;28;20195;-85
2021/01/31 09:10:12;;;;;;;0.37;0.37;;;1.20;99.90;;;;;;5032533;28;20205;-84
2021/01/31 09:12:38;;;;;;;0.40;0.40;;;1.20;99.90;;;;;;5047458;28;20182;-84
2021/01/31 09:15:09;;;;;;;0.40;0.40;;;1.10;99.90;;;;;;5027881;28;20205;-84
2021/01/31 09:17:35;;;;;;;0.53;0.53;;;1.00;99.90;;;;;;5068339;28;20815;-83
2021/01/31 09:20:26;;;;;;;0.23;0.23;;;1.10;99.90;;;;;;5033169;28;20214;-83
2021/01/31 09:22:55;;;;;;;2.17;0.60;;;1.20;99.90;;;;;;5029678;28;20273;-85
2021/01/31 09:25:23;;;;;;;1.00;1.00;;;1.10;99.90;;;;;;5038958;28;20184;-83
2021/01/31 09:28:03;;;;;;;1.40;1.07;;;1.20;99.90;;;;;;5045575;28;20646;-83
2021/01/31 09:30:31;;;;;;;0.10;0.10;;;1.20;99.90;;;;;;5053512;28;20201;-83
2021/01/31 09:33:03;;;;;;;0.87;0.80;;;1.30;99.90;;;;;;5045386;28;20182;-83
2021/01/31 09:35:32;;;;;;;0.83;0.53;;;1.10;99.90;;;;;;5045156;28;20607;-82
2021/01/31 09:38:37;;;;;;;0.27;0.27;;;1.20;99.90;;;;;;5037797;28;20651;-82
2021/01/31 09:41:03;;;;;;;2.67;0.57;;;1.30;99.90;;;;;;5042327;28;20221;-85
2021/01/31 09:43:31;;;;;;;0.30;0.30;;;1.20;99.90;;;;;;5045635;28;20182;-82
2021/01/31 09:46:01;;;;;;;0.17;0.17;;;1.30;99.90;;;;;;5032661;28;20757;-84
2021/01/31 09:48:30;;;;;;;1.80;1.33;;;1.20;99.90;;;;;;5023730;28;20175;-83
2021/01/31 09:51:05;;;;;;;0.20;0.20;;;1.20;99.90;;;;;;5035839;28;20218;-82
2021/01/31 09:53:38;;;;;;;0.47;0.47;;;1.30;99.90;;;;;;5029085;28;20313;-83
2021/01/31 09:56:35;;;;;;;1.17;1.07;;;1.40;99.90;;;;;;5047885;28;20561;-83
2021/01/31 09:59:01;;;;;;;0.30;0.30;;;1.30;99.90;;;;;;5033320;28;20603;-82
2021/01/31 10:01:29;;;;;;;2.10;2.00;;;1.30;99.90;;;;;;5041721;28;20236;-82
2021/01/31 10:04:04;;;;;;;2.83;1.17;;;1.10;99.90;;;;;;5033182;28;20179;-83
2021/01/31 10:06:45;;;;;;;0.43;0.43;;;1.40;99.90;;;;;;5049213;28;20178;-83
2021/01/31 10:09:40;;;;;;;0.10;0.10;;;1.60;99.90;;;;;;5041575;28;20186;-84
2021/01/31 10:12:26;;;;;;;0.83;0.40;;;1.30;99.90;;;;;;5031587;28;20179;-84
2021/01/31 10:15:01;;;;;;;0.83;0.73;;;1.40;99.90;;;;;;5027430;28;20779;-83
2021/01/31 10:17:43;;;;;;;1.90;0.33;;;1.60;99.90;;;;;;5044884;28;20190;-82
2021/01/31 10:20:29;;;;;;;1.80;0.73;;;1.60;99.90;;;;;;5033177;28;20249;-84
2021/01/31 10:23:18;;;;;;;0.50;0.50;;;1.70;99.90;;;;;;5039378;28;20197;-85
2021/01/31 10:25:57;;;;;;;0.37;0.37;;;1.70;99.90;;;;;;5042217;28;20562;-83
2021/01/31 10:28:32;;;;;;;1.70;1.10;;;1.50;99.90;;;;;;5023949;28;20183;-84
2021/01/31 10:30:58;;;;;;;0.60;0.60;;;1.60;99.90;;;;;;5027220;28;20874;-83
2021/01/31 10:33:42;;;;;;;0.60;0.60;;;1.70;99.90;;;;;;5040412;28;20192;-84
2021/01/31 10:36:28;;;;;;;2.17;0.60;;;1.50;99.90;;;;;;5052519;28;20221;-83
2021/01/31 10:38:56;;;;;;;0.87;0.87;;;1.40;99.90;;;;;;5043636;28;20186;-83
2021/01/31 10:41:22;;;;;;;0.70;0.40;;;1.40;99.90;;;;;;5041264;28;20237;-82
2021/01/31 10:43:59;;;;;;;0.83;0.37;;;1.50;99.90;;;;;;5044597;28;20643;-83
2021/01/31 10:46:25;;;;;;;0.10;0.10;;;1.60;99.90;;;;;;5028587;28;20218;-84
2021/01/31 10:48:51;;;;;;;0.47;0.47;;;1.70;99.90;;;;;;5053375;28;20554;-85
2021/01/31 10:51:17;;;;;;;0.50;0.47;;;1.80;99.90;;;;;;5039899;28;20201;-83
2021/01/31 10:53:43;;;;;;;0.27;0.27;;;2.10;99.90;;;;;;5039731;28;20575;-84
2021/01/31 10:56:13;;;;;;;1.20;0.53;;;2.10;99.90;;;;;;5033898;28;20251;-83
2021/01/31 10:58:39;;;;;;;0.60;0.60;;;2.00;99.90;;;;;;5028759;28;20197;-81
2021/01/31 11:01:06;;;;;;;0.30;0.30;;;2.30;99.90;;;;;;5040071;28;20221;-83
2021/01/31 11:03:31;;;;;;;0.50;0.50;;;1.90;99.90;;;;;;5035036;28;20802;-82
2021/01/31 11:05:57;;;;;;;0.20;0.20;;;1.80;99.90;;;;;;5034958;28;20184;-83
2021/01/31 11:08:24;;;;;;;0.27;0.27;;;2.00;99.90;;;;;;5041103;28;20183;-81
2021/01/31 11:10:50;;;;;;;0.10;0.10;;;2.30;99.90;;;;;;5047101;28;20206;-82
2021/01/31 11:13:15;;;;;;;0.30;0.30;;;2.30;99.90;;;;;;5032933;28;20341;-82
2021/01/31 11:15:41;;;;;;;0.53;0.37;;;2.30;99.90;;;;;;5041971;28;20262;-82
2021/01/31 11:18:06;;;;;;;0.43;0.43;;;2.10;99.90;;;;;;5030647;28;20201;-82
2021/01/31 11:20:41;;;;;;;0.20;0.20;;;2.50;99.90;;;;;;5026518;28;20222;-82
2021/01/31 11:23:07;;;;;;;0.30;0.30;;;2.40;99.90;;;;;;5041823;28;20227;-83
2021/01/31 11:25:33;;;;;;;0.63;0.63;;;2.30;99.90;;;;;;5029723;28;20218;-85
2021/01/31 11:27:59;;;;;;;1.87;1.03;;;2.10;99.90;;;;;;5037024;28;20211;-81
2021/01/31 11:30:25;;;;;;;0.40;0.40;;;1.90;99.90;;;;;;5037750;28;20209;-81
2021/01/31 11:32:50;;;;;;;0.57;0.57;;;2.00;99.90;;;;;;5034479;28;20249;-82
2021/01/31 11:35:17;;;;;;;0.80;0.77;;;2.50;99.90;;;;;;5030144;28;20642;-83
2021/01/31 11:37:42;;;;;;;0.47;0.47;;;2.10;99.90;;;;;;5031352;28;20204;-83
2021/01/31 11:40:15;;;;;;;4.50;1.93;;;2.40;99.90;;;;;;5037574;28;20233;-82
2021/01/31 11:42:41;;;;;;;0.37;0.37;;;2.40;99.90;;;;;;5034037;28;20183;-84
2021/01/31 11:45:11;;;;;;;0.47;0.30;;;2.60;99.90;;;;;;5031395;28;20190;-82
2021/01/31 11:47:38;;;;;;;0.43;0.43;;;2.90;99.90;;;;;;5028668;28;20259;-82
2021/01/31 11:50:13;;;;;;;0.30;0.30;;;2.60;99.90;;;;;;5032859;28;20205;-85
2021/01/31 11:52:38;;;;;;;0.77;0.50;;;2.40;99.90;;;;;;5024033;28;20191;-85
2021/01/31 11:55:05;;;;;;;1.20;0.83;;;2.20;99.90;;;;;;5048008;28;20199;-81
2021/01/31 11:57:38;;;;;;;0.80;0.50;;;2.40;99.90;;;;;;5025690;28;20207;-83
2021/01/31 12:00:18;;;;;;;0.60;0.60;;;2.50;99.90;;;;;;5042702;28;20214;-83
2021/01/31 12:02:43;;;;;;;0.67;0.67;;;2.40;99.90;;;;;;5028293;28;20278;-83
2021/01/31 12:05:34;;;;;;;0.77;0.60;;;2.50;99.90;;;;;;5024985;28;20289;-83
2021/01/31 12:08:00;;;;;;;0.43;0.30;;;2.40;99.90;;;;;;5015190;28;20178;-82
2021/01/31 12:10:26;;;;;;;1.43;1.33;;;2.30;99.90;;;;;;5034132;28;20677;-83
2021/01/31 12:12:52;;;;;;;0.30;0.30;;;2.40;99.90;;;;;;5041426;28;20236;-84
2021/01/31 12:15:18;;;;;;;0.77;0.70;;;2.60;99.90;;;;;;5022585;28;20194;-84
2021/01/31 12:18:11;;;;;;;0.90;0.47;;;2.30;99.90;;;;;;5027800;28;20194;-83
2021/01/31 12:20:37;;;;;;;1.57;1.43;;;2.10;99.90;;;;;;5033200;28;20561;-83
2021/01/31 12:23:02;;;;;;;0.63;0.63;;;2.00;99.90;;;;;;5047603;28;20272;-83
2021/01/31 12:25:29;;;;;;;2.00;0.83;;;2.00;99.90;;;;;;5045482;28;20665;-84
2021/01/31 12:27:57;;;;;;;1.63;0.77;;;2.20;99.90;;;;;;5040536;28;20261;-83
2021/01/31 12:30:26;;;;;;;3.33;0.93;;;2.30;99.90;;;;;;5041598;28;20224;-83
2021/01/31 12:32:52;;;;;;;1.03;0.67;;;2.10;99.90;;;;;;5046011;28;20174;-82
2021/01/31 12:35:17;;;;;;;0.97;0.97;;;2.30;99.90;;;;;;5051611;28;20187;-84
2021/01/31 12:37:43;;;;;;;1.30;1.20;;;2.10;99.90;;;;;;5037839;28;20190;-84
2021/01/31 12:40:10;;;;;;;1.17;0.80;;;2.20;99.90;;;;;;5037566;28;20217;-83
2021/01/31 12:42:36;;;;;;;0.57;0.50;;;2.20;99.90;;;;;;5049538;28;20650;-82
2021/01/31 12:45:02;;;;;;;0.13;0.13;;;2.30;99.90;;;;;;5032658;28;20185;-83
2021/01/31 12:47:28;;;;;;;0.50;0.50;;;2.00;99.90;;;;;;5052164;28;20192;-85
2021/01/31 12:49:53;;;;;;;0.50;0.20;;;2.30;99.90;;;;;;5038614;28;20205;-83
2021/01/31 12:53:01;;;;;;;0.40;0.40;;;2.50;99.90;;;;;;5037327;28;20210;-84
2021/01/31 12:55:27;;;;;;;0.90;0.70;;;2.40;99.90;;;;;;5056316;28;20192;-83
2021/01/31 12:57:53;;;;;;;1.63;0.33;;;2.20;99.90;;;;;;5043626;28;20193;-84
2021/01/31 13:00:20;;;;;;;1.23;0.87;;;2.00;99.90;;;;;;5051634;28;20217;-85
2021/01/31 13:02:46;;;;;;;0.50;0.50;;;1.90;99.90;;;;;;5050613;28;20636;-84
2021/01/31 13:05:14;;;;;;;0.63;0.47;;;1.70;99.90;;;;;;5038334;28;20182;-83
2021/01/31 13:07:39;;;;;;;0.33;0.33;;;1.80;99.90;;;;;;5050828;28;20277;-83
2021/01/31 13:10:08;;;;;;;0.47;0.47;;;1.80;99.90;;;;;;5037873;28;20341;-84
2021/01/31 13:12:33;;;;;;;0.67;0.60;;;2.00;99.90;;;;;;5043067;28;20654;-83
2021/01/31 13:14:59;;;;;;;2.23;0.93;;;2.10;99.90;;;;;;5053507;28;20205;-83
2021/01/31 13:17:25;;;;;;;0.40;0.40;;;2.00;99.90;;;;;;5033492;28;20259;-84
2021/01/31 13:19:51;;;;;;;0.50;0.50;;;2.20;99.90;;;;;;5016529;28;20222;-84
2021/01/31 13:22:17;;;;;;;0.53;0.53;;;2.00;99.90;;;;;;5050269;28;20166;-84
2021/01/31 13:24:43;;;;;;;0.50;0.50;;;2.10;99.90;;;;;;5049977;28;20173;-85
2021/01/31 13:27:10;;;;;;;3.13;0.60;;;2.00;99.90;;;;;;5038077;28;20202;-85
2021/01/31 13:29:36;;;;;;;0.10;0.10;;;2.10;99.90;;;;;;5029655;28;20194;-83
2021/01/31 13:32:02;;;;;;;1.07;1.07;;;2.20;99.90;;;;;;5029463;28;20209;-83
2021/01/31 13:34:30;;;;;;;0.50;0.50;;;2.10;99.90;;;;;;5024563;28;20181;-87
2021/01/31 13:36:57;;;;;;;0.70;0.70;;;2.00;99.90;;;;;;5048032;28;20170;-86